sensor_id;sensor_type;location;lat;lon;timestamp;pressure;altitude;pressure_sealevel;temperature;humidity
64115;BME280;62188;35.640;139.748;2023-11-21T00:01:04;102372.31;;;19.31;22.72
64115;BME280;62188;35.640;139.748;2023-11-21T00:03:29;102375.97;;;19.77;22.06
64115;BME280;62188;35.640;139.748;2023-11-21T00:05:54;102365.83;;;19.57;21.97
64115;BME280;62188;35.640;139.748;2023-11-21T00:08:20;102360.57;;;19.82;21.84
64115;BME280;62188;35.640;139.748;2023-11-21T00:10:45;102365.20;;;19.94;21.96
64115;BME280;62188;35.640;139.748;2023-11-21T00:13:11;102366.13;;;19.55;21.85
64115;BME280;62188;35.640;139.748;2023-11-21T00:15:36;102363.15;;;19.38;21.27
64115;BME280;62188;35.640;139.748;2023-11-21T00:18:03;102349.48;;;20.20;21.39
64115;BME280;62188;35.640;139.748;2023-11-21T00:20:28;102347.98;;;20.07;21.33
64115;BME280;62188;35.640;139.748;2023-11-21T00:22:53;102353.79;;;20.30;21.00
64115;BME280;62188;35.640;139.748;2023-11-21T00:25:18;102337.38;;;19.61;21.29
64115;BME280;62188;35.640;139.748;2023-11-21T00:27:44;102331.40;;;19.15;21.04
64115;BME280;62188;35.640;139.748;2023-11-21T00:30:10;102341.86;;;19.66;20.93
64115;BME280;62188;35.640;139.748;2023-11-21T00:32:40;102352.76;;;19.36;20.99
64115;BME280;62188;35.640;139.748;2023-11-21T00:35:00;102350.31;;;18.88;21.48
64115;BME280;62188;35.640;139.748;2023-11-21T00:37:26;102335.84;;;18.86;21.59
64115;BME280;62188;35.640;139.748;2023-11-21T00:39:51;102335.04;;;19.03;21.40
64115;BME280;62188;35.640;139.748;2023-11-21T00:42:17;102351.89;;;18.88;21.56
64115;BME280;62188;35.640;139.748;2023-11-21T00:44:42;102357.49;;;18.52;21.72
64115;BME280;62188;35.640;139.748;2023-11-21T00:47:07;102349.99;;;19.36;21.43
64115;BME280;62188;35.640;139.748;2023-11-21T00:49:33;102345.61;;;19.05;21.55
64115;BME280;62188;35.640;139.748;2023-11-21T00:51:59;102343.86;;;19.24;21.51
64115;BME280;62188;35.640;139.748;2023-11-21T00:54:24;102344.79;;;19.62;21.12
64115;BME280;62188;35.640;139.748;2023-11-21T00:56:50;102351.24;;;19.04;21.40
64115;BME280;62188;35.640;139.748;2023-11-21T00:59:15;102346.75;;;18.87;21.59
64115;BME280;62188;35.640;139.748;2023-11-21T01:01:41;102345.96;;;18.57;21.96
64115;BME280;62188;35.640;139.748;2023-11-21T01:04:07;102339.02;;;18.21;22.05
64115;BME280;62188;35.640;139.748;2023-11-21T01:06:31;102329.39;;;18.09;22.21
64115;BME280;62188;35.640;139.748;2023-11-21T01:08:56;102327.76;;;18.38;22.32
64115;BME280;62188;35.640;139.748;2023-11-21T01:11:23;102331.48;;;18.23;22.73
64115;BME280;62188;35.640;139.748;2023-11-21T01:13:48;102335.32;;;17.54;23.46
64115;BME280;62188;35.640;139.748;2023-11-21T01:16:13;102329.22;;;17.35;23.68
64115;BME280;62188;35.640;139.748;2023-11-21T01:18:40;102321.89;;;17.18;24.26
64115;BME280;62188;35.640;139.748;2023-11-21T01:21:05;102316.96;;;16.94;24.47
64115;BME280;62188;35.640;139.748;2023-11-21T01:23:31;102305.03;;;17.07;24.30
64115;BME280;62188;35.640;139.748;2023-11-21T01:25:57;102311.38;;;16.97;24.73
64115;BME280;62188;35.640;139.748;2023-11-21T01:28:21;102318.67;;;16.37;25.14
64115;BME280;62188;35.640;139.748;2023-11-21T01:30:47;102316.94;;;15.41;25.80
64115;BME280;62188;35.640;139.748;2023-11-21T01:33:12;102309.89;;;16.07;25.68
64115;BME280;62188;35.640;139.748;2023-11-21T01:35:37;102295.10;;;16.56;25.12
64115;BME280;62188;35.640;139.748;2023-11-21T01:38:04;102281.88;;;17.46;24.64
64115;BME280;62188;35.640;139.748;2023-11-21T01:40:29;102283.63;;;18.14;23.99
64115;BME280;62188;35.640;139.748;2023-11-21T01:42:54;102280.36;;;17.87;23.84
64115;BME280;62188;35.640;139.748;2023-11-21T01:45:20;102282.99;;;18.09;23.77
64115;BME280;62188;35.640;139.748;2023-11-21T01:47:46;102277.39;;;17.96;23.74
64115;BME280;62188;35.640;139.748;2023-11-21T01:50:15;102266.21;;;17.71;23.96
64115;BME280;62188;35.640;139.748;2023-11-21T01:52:38;102255.34;;;17.91;24.15
64115;BME280;62188;35.640;139.748;2023-11-21T01:55:03;102251.78;;;17.44;24.46
64115;BME280;62188;35.640;139.748;2023-11-21T01:57:27;102246.52;;;18.00;24.70
64115;BME280;62188;35.640;139.748;2023-11-21T01:59:55;102246.21;;;18.33;24.18
64115;BME280;62188;35.640;139.748;2023-11-21T02:02:18;102240.64;;;18.50;24.03
64115;BME280;62188;35.640;139.748;2023-11-21T02:04:44;102231.99;;;19.10;23.54
64115;BME280;62188;35.640;139.748;2023-11-21T02:07:10;102226.27;;;19.52;23.11
64115;BME280;62188;35.640;139.748;2023-11-21T02:09:34;102223.27;;;20.46;22.39
64115;BME280;62188;35.640;139.748;2023-11-21T02:12:01;102216.34;;;20.94;21.83
64115;BME280;62188;35.640;139.748;2023-11-21T02:14:26;102217.13;;;20.66;21.55
64115;BME280;62188;35.640;139.748;2023-11-21T02:16:52;102212.27;;;21.31;21.36
64115;BME280;62188;35.640;139.748;2023-11-21T02:19:20;102209.72;;;21.81;21.15
64115;BME280;62188;35.640;139.748;2023-11-21T02:21:43;102200.23;;;21.89;20.93
64115;BME280;62188;35.640;139.748;2023-11-21T02:24:23;102186.65;;;22.17;20.80
64115;BME280;62188;35.640;139.748;2023-11-21T02:26:33;102183.38;;;22.54;20.81
64115;BME280;62188;35.640;139.748;2023-11-21T02:28:59;102186.53;;;22.35;20.29
64115;BME280;62188;35.640;139.748;2023-11-21T02:31:24;102186.23;;;22.01;20.49
64115;BME280;62188;35.640;139.748;2023-11-21T02:33:50;102181.90;;;21.24;20.80
64115;BME280;62188;35.640;139.748;2023-11-21T02:36:15;102171.89;;;21.88;20.69
64115;BME280;62188;35.640;139.748;2023-11-21T02:38:40;102163.27;;;21.73;20.75
64115;BME280;62188;35.640;139.748;2023-11-21T02:41:06;102157.96;;;22.08;20.67
64115;BME280;62188;35.640;139.748;2023-11-21T02:43:31;102157.81;;;22.26;20.59
64115;BME280;62188;35.640;139.748;2023-11-21T02:45:57;102152.22;;;22.54;20.26
64115;BME280;62188;35.640;139.748;2023-11-21T02:48:22;102144.68;;;22.83;19.98
64115;BME280;62188;35.640;139.748;2023-11-21T02:50:48;102140.62;;;23.09;20.01
64115;BME280;62188;35.640;139.748;2023-11-21T02:53:13;102138.03;;;23.29;19.52
64115;BME280;62188;35.640;139.748;2023-11-21T02:55:38;102138.26;;;23.63;19.33
64115;BME280;62188;35.640;139.748;2023-11-21T02:58:04;102134.46;;;23.58;19.33
64115;BME280;62188;35.640;139.748;2023-11-21T03:00:29;102128.00;;;23.22;19.26
64115;BME280;62188;35.640;139.748;2023-11-21T03:02:55;102120.17;;;23.75;19.33
64115;BME280;62188;35.640;139.748;2023-11-21T03:05:20;102108.33;;;23.88;19.10
64115;BME280;62188;35.640;139.748;2023-11-21T03:07:46;102108.61;;;23.80;19.01
64115;BME280;62188;35.640;139.748;2023-11-21T03:10:11;102111.01;;;24.51;18.98
64115;BME280;62188;35.640;139.748;2023-11-21T03:12:38;102103.44;;;23.97;19.16
64115;BME280;62188;35.640;139.748;2023-11-21T03:15:01;102097.72;;;23.47;19.27
64115;BME280;62188;35.640;139.748;2023-11-21T03:17:27;102096.69;;;23.02;19.45
64115;BME280;62188;35.640;139.748;2023-11-21T03:19:52;102093.93;;;22.77;19.86
64115;BME280;62188;35.640;139.748;2023-11-21T03:22:18;102084.60;;;22.79;20.36
64115;BME280;62188;35.640;139.748;2023-11-21T03:24:43;102081.85;;;22.18;20.95
64115;BME280;62188;35.640;139.748;2023-11-21T03:27:08;102081.74;;;21.24;21.51
64115;BME280;62188;35.640;139.748;2023-11-21T03:29:34;102078.33;;;20.57;22.36
64115;BME280;62188;35.640;139.748;2023-11-21T03:32:00;102065.83;;;20.64;22.67
64115;BME280;62188;35.640;139.748;2023-11-21T03:34:26;102060.03;;;20.72;22.75
64115;BME280;62188;35.640;139.748;2023-11-21T03:36:50;102055.87;;;20.38;23.07
64115;BME280;62188;35.640;139.748;2023-11-21T03:39:16;102060.55;;;19.74;23.80
64115;BME280;62188;35.640;139.748;2023-11-21T03:41:41;102051.38;;;18.81;24.55
64115;BME280;62188;35.640;139.748;2023-11-21T03:44:06;102052.04;;;18.38;25.06
64115;BME280;62188;35.640;139.748;2023-11-21T03:46:32;102041.57;;;18.68;24.92
64115;BME280;62188;35.640;139.748;2023-11-21T03:48:59;102031.92;;;18.36;25.53
64115;BME280;62188;35.640;139.748;2023-11-21T03:51:26;102022.56;;;18.27;25.63
64115;BME280;62188;35.640;139.748;2023-11-21T03:53:49;102018.56;;;18.37;25.95
64115;BME280;62188;35.640;139.748;2023-11-21T03:56:16;102022.82;;;18.50;26.12
64115;BME280;62188;35.640;139.748;2023-11-21T03:58:40;102019.81;;;18.14;26.95
64115;BME280;62188;35.640;139.748;2023-11-21T04:01:05;102016.80;;;18.08;27.18
64115;BME280;62188;35.640;139.748;2023-11-21T04:03:31;102017.70;;;18.84;26.74
64115;BME280;62188;35.640;139.748;2023-11-21T04:05:56;102010.35;;;19.38;26.39
64115;BME280;62188;35.640;139.748;2023-11-21T04:08:22;102008.84;;;19.72;26.24
64115;BME280;62188;35.640;139.748;2023-11-21T04:10:47;101994.70;;;20.60;25.55
64115;BME280;62188;35.640;139.748;2023-11-21T04:13:13;101984.36;;;20.95;24.89
64115;BME280;62188;35.640;139.748;2023-11-21T04:15:38;101985.07;;;21.04;24.59
64115;BME280;62188;35.640;139.748;2023-11-21T04:18:04;101979.71;;;21.88;24.17
64115;BME280;62188;35.640;139.748;2023-11-21T04:20:28;101978.59;;;21.56;24.43
64115;BME280;62188;35.640;139.748;2023-11-21T04:22:54;101974.26;;;21.22;24.98
64115;BME280;62188;35.640;139.748;2023-11-21T04:25:20;101969.31;;;21.87;24.36
64115;BME280;62188;35.640;139.748;2023-11-21T04:27:46;101970.79;;;21.79;24.23
64115;BME280;62188;35.640;139.748;2023-11-21T04:30:11;101965.94;;;22.01;24.27
64115;BME280;62188;35.640;139.748;2023-11-21T04:32:37;101957.93;;;21.97;24.24
64115;BME280;62188;35.640;139.748;2023-11-21T04:35:02;101958.36;;;21.06;25.00
64115;BME280;62188;35.640;139.748;2023-11-21T04:37:27;101958.38;;;21.23;25.08
64115;BME280;62188;35.640;139.748;2023-11-21T04:39:52;101956.18;;;20.84;25.49
64115;BME280;62188;35.640;139.748;2023-11-21T04:42:18;101957.09;;;20.65;25.72
64115;BME280;62188;35.640;139.748;2023-11-21T04:44:44;101954.16;;;20.06;26.36
64115;BME280;62188;35.640;139.748;2023-11-21T04:47:09;101964.58;;;19.69;26.91
64115;BME280;62188;35.640;139.748;2023-11-21T04:49:33;101964.04;;;19.26;27.20
64115;BME280;62188;35.640;139.748;2023-11-21T04:51:59;101960.51;;;18.14;28.33
64115;BME280;62188;35.640;139.748;2023-11-21T04:54:25;101958.38;;;18.52;28.26
64115;BME280;62188;35.640;139.748;2023-11-21T04:56:51;101953.94;;;18.28;28.76
64115;BME280;62188;35.640;139.748;2023-11-21T04:59:16;101957.01;;;18.16;28.95
64115;BME280;62188;35.640;139.748;2023-11-21T05:01:43;101950.86;;;17.83;29.43
64115;BME280;62188;35.640;139.748;2023-11-21T05:04:09;101950.45;;;18.19;29.38
64115;BME280;62188;35.640;139.748;2023-11-21T05:06:33;101951.54;;;18.19;29.61
64115;BME280;62188;35.640;139.748;2023-11-21T05:08:59;101944.73;;;17.85;30.45
64115;BME280;62188;35.640;139.748;2023-11-21T05:11:27;101944.13;;;17.99;30.43
64115;BME280;62188;35.640;139.748;2023-11-21T05:13:51;101939.96;;;17.92;30.57
64115;BME280;62188;35.640;139.748;2023-11-21T05:16:15;101932.79;;;17.95;30.78
64115;BME280;62188;35.640;139.748;2023-11-21T05:18:41;101932.60;;;17.97;31.07
64115;BME280;62188;35.640;139.748;2023-11-21T05:21:07;101934.57;;;17.77;31.32
64115;BME280;62188;35.640;139.748;2023-11-21T05:23:32;101934.80;;;18.06;31.47
64115;BME280;62188;35.640;139.748;2023-11-21T05:25:58;101931.37;;;17.56;31.46
64115;BME280;62188;35.640;139.748;2023-11-21T05:28:23;101931.61;;;17.71;31.44
64115;BME280;62188;35.640;139.748;2023-11-21T05:30:48;101932.46;;;17.83;31.42
64115;BME280;62188;35.640;139.748;2023-11-21T05:33:14;101928.28;;;17.17;32.07
64115;BME280;62188;35.640;139.748;2023-11-21T05:35:39;101923.65;;;17.63;31.72
64115;BME280;62188;35.640;139.748;2023-11-21T05:38:04;101925.15;;;17.70;31.73
64115;BME280;62188;35.640;139.748;2023-11-21T05:40:30;101928.26;;;17.60;31.97
64115;BME280;62188;35.640;139.748;2023-11-21T05:42:55;101925.64;;;17.64;32.10
64115;BME280;62188;35.640;139.748;2023-11-21T05:45:20;101928.03;;;17.47;32.72
64115;BME280;62188;35.640;139.748;2023-11-21T05:47:46;101923.81;;;18.06;32.72
64115;BME280;62188;35.640;139.748;2023-11-21T05:50:19;101923.52;;;17.56;32.68
64115;BME280;62188;35.640;139.748;2023-11-21T05:52:38;101922.30;;;17.12;33.06
64115;BME280;62188;35.640;139.748;2023-11-21T05:55:03;101919.50;;;17.49;33.02
64115;BME280;62188;35.640;139.748;2023-11-21T05:57:28;101921.24;;;17.18;33.41
64115;BME280;62188;35.640;139.748;2023-11-21T05:59:53;101926.04;;;17.49;33.72
64115;BME280;62188;35.640;139.748;2023-11-21T06:02:19;101936.20;;;17.03;33.96
64115;BME280;62188;35.640;139.748;2023-11-21T06:04:44;101931.85;;;17.45;34.52
64115;BME280;62188;35.640;139.748;2023-11-21T06:07:10;101930.11;;;17.98;34.89
64115;BME280;62188;35.640;139.748;2023-11-21T06:09:36;101922.35;;;17.38;35.29
64115;BME280;62188;35.640;139.748;2023-11-21T06:12:00;101924.53;;;17.53;34.97
64115;BME280;62188;35.640;139.748;2023-11-21T06:14:26;101922.95;;;17.84;34.97
64115;BME280;62188;35.640;139.748;2023-11-21T06:16:51;101922.08;;;17.43;35.13
64115;BME280;62188;35.640;139.748;2023-11-21T06:19:17;101927.81;;;17.39;35.20
64115;BME280;62188;35.640;139.748;2023-11-21T06:21:45;101928.12;;;17.27;35.04
64115;BME280;62188;35.640;139.748;2023-11-21T06:24:08;101930.87;;;17.57;35.07
64115;BME280;62188;35.640;139.748;2023-11-21T06:26:33;101937.31;;;17.23;35.67
64115;BME280;62188;35.640;139.748;2023-11-21T06:28:59;101937.94;;;17.36;35.84
64115;BME280;62188;35.640;139.748;2023-11-21T06:31:24;101940.92;;;17.05;36.35
64115;BME280;62188;35.640;139.748;2023-11-21T06:33:49;101937.64;;;17.21;36.22
64115;BME280;62188;35.640;139.748;2023-11-21T06:36:15;101936.04;;;17.42;36.26
64115;BME280;62188;35.640;139.748;2023-11-21T06:38:40;101937.20;;;17.03;36.44
64115;BME280;62188;35.640;139.748;2023-11-21T06:41:06;101934.43;;;17.01;36.60
64115;BME280;62188;35.640;139.748;2023-11-21T06:43:32;101938.90;;;16.87;36.79
64115;BME280;62188;35.640;139.748;2023-11-21T06:45:57;101940.60;;;16.88;37.13
64115;BME280;62188;35.640;139.748;2023-11-21T06:48:22;101941.13;;;16.58;37.89
64115;BME280;62188;35.640;139.748;2023-11-21T06:50:48;101944.91;;;16.72;37.45
64115;BME280;62188;35.640;139.748;2023-11-21T06:53:20;101942.77;;;16.75;37.40
64115;BME280;62188;35.640;139.748;2023-11-21T06:55:39;101942.66;;;17.00;37.22
64115;BME280;62188;35.640;139.748;2023-11-21T06:58:05;101940.55;;;16.97;36.99
64115;BME280;62188;35.640;139.748;2023-11-21T07:00:31;101940.59;;;16.41;37.75
64115;BME280;62188;35.640;139.748;2023-11-21T07:02:56;101944.63;;;16.89;37.53
64115;BME280;62188;35.640;139.748;2023-11-21T07:05:22;101944.11;;;16.92;37.55
64115;BME280;62188;35.640;139.748;2023-11-21T07:07:46;101946.33;;;16.67;37.62
64115;BME280;62188;35.640;139.748;2023-11-21T07:10:12;101948.70;;;16.96;37.95
64115;BME280;62188;35.640;139.748;2023-11-21T07:12:38;101949.35;;;16.78;38.00
64115;BME280;62188;35.640;139.748;2023-11-21T07:15:03;101950.98;;;16.99;37.75
64115;BME280;62188;35.640;139.748;2023-11-21T07:17:28;101944.30;;;17.14;37.55
64115;BME280;62188;35.640;139.748;2023-11-21T07:19:54;101944.01;;;16.82;37.81
64115;BME280;62188;35.640;139.748;2023-11-21T07:22:20;101946.70;;;16.77;37.95
64115;BME280;62188;35.640;139.748;2023-11-21T07:24:52;101946.80;;;16.98;38.09
64115;BME280;62188;35.640;139.748;2023-11-21T07:27:11;101952.84;;;16.92;38.25
64115;BME280;62188;35.640;139.748;2023-11-21T07:29:36;101955.07;;;16.55;38.48
64115;BME280;62188;35.640;139.748;2023-11-21T07:32:02;101953.11;;;16.77;38.23
64115;BME280;62188;35.640;139.748;2023-11-21T07:34:32;101952.16;;;16.55;38.47
64115;BME280;62188;35.640;139.748;2023-11-21T07:36:53;101951.90;;;16.64;38.73
64115;BME280;62188;35.640;139.748;2023-11-21T07:39:19;101949.30;;;16.45;38.80
64115;BME280;62188;35.640;139.748;2023-11-21T07:41:44;101950.35;;;16.71;38.72
64115;BME280;62188;35.640;139.748;2023-11-21T07:44:10;101955.16;;;16.80;38.61
64115;BME280;62188;35.640;139.748;2023-11-21T07:46:35;101959.82;;;16.87;38.57
64115;BME280;62188;35.640;139.748;2023-11-21T07:49:00;101960.18;;;16.65;38.64
64115;BME280;62188;35.640;139.748;2023-11-21T07:51:28;101954.96;;;16.80;38.60
64115;BME280;62188;35.640;139.748;2023-11-21T07:53:52;101952.30;;;16.81;38.60
64115;BME280;62188;35.640;139.748;2023-11-21T07:56:16;101953.41;;;16.92;38.84
64115;BME280;62188;35.640;139.748;2023-11-21T07:58:45;101955.02;;;16.81;38.71
64115;BME280;62188;35.640;139.748;2023-11-21T08:01:09;101957.36;;;16.89;38.64
64115;BME280;62188;35.640;139.748;2023-11-21T08:03:34;101958.66;;;16.97;38.87
64115;BME280;62188;35.640;139.748;2023-11-21T08:06:01;101962.88;;;16.98;38.77
64115;BME280;62188;35.640;139.748;2023-11-21T08:08:25;101965.19;;;17.04;38.65
64115;BME280;62188;35.640;139.748;2023-11-21T08:10:50;101974.89;;;16.97;38.56
64115;BME280;62188;35.640;139.748;2023-11-21T08:13:15;101974.62;;;17.02;38.71
64115;BME280;62188;35.640;139.748;2023-11-21T08:15:41;101971.75;;;17.09;38.61
64115;BME280;62188;35.640;139.748;2023-11-21T08:18:07;101973.34;;;16.90;38.97
64115;BME280;62188;35.640;139.748;2023-11-21T08:20:32;101977.38;;;17.06;38.92
64115;BME280;62188;35.640;139.748;2023-11-21T08:22:57;101975.98;;;16.43;39.54
64115;BME280;62188;35.640;139.748;2023-11-21T08:25:23;101978.84;;;16.55;39.73
64115;BME280;62188;35.640;139.748;2023-11-21T08:27:49;101980.08;;;16.72;39.64
64115;BME280;62188;35.640;139.748;2023-11-21T08:30:14;101979.94;;;16.79;39.51
64115;BME280;62188;35.640;139.748;2023-11-21T08:32:40;101983.92;;;17.09;39.57
64115;BME280;62188;35.640;139.748;2023-11-21T08:35:06;101987.56;;;16.96;39.50
64115;BME280;62188;35.640;139.748;2023-11-21T08:37:30;101985.29;;;16.89;39.75
64115;BME280;62188;35.640;139.748;2023-11-21T08:39:58;101987.05;;;16.75;39.93
64115;BME280;62188;35.640;139.748;2023-11-21T08:42:21;101992.99;;;17.07;40.02
64115;BME280;62188;35.640;139.748;2023-11-21T08:44:48;101995.31;;;17.23;39.67
64115;BME280;62188;35.640;139.748;2023-11-21T08:47:12;101997.24;;;17.12;39.49
64115;BME280;62188;35.640;139.748;2023-11-21T08:49:38;101998.15;;;17.23;39.59
64115;BME280;62188;35.640;139.748;2023-11-21T08:52:04;101999.06;;;17.29;39.55
64115;BME280;62188;35.640;139.748;2023-11-21T08:54:28;101999.55;;;17.39;39.44
64115;BME280;62188;35.640;139.748;2023-11-21T08:56:54;101998.87;;;17.44;39.60
64115;BME280;62188;35.640;139.748;2023-11-21T08:59:21;101997.53;;;17.01;39.60
64115;BME280;62188;35.640;139.748;2023-11-21T09:01:44;101999.64;;;17.47;39.70
64115;BME280;62188;35.640;139.748;2023-11-21T09:04:11;102001.07;;;17.13;39.84
64115;BME280;62188;35.640;139.748;2023-11-21T09:06:36;102007.63;;;17.42;39.42
64115;BME280;62188;35.640;139.748;2023-11-21T09:09:01;102009.18;;;17.13;39.65
64115;BME280;62188;35.640;139.748;2023-11-21T09:11:27;102011.43;;;17.17;39.63
64115;BME280;62188;35.640;139.748;2023-11-21T09:13:52;102009.90;;;17.50;39.26
64115;BME280;62188;35.640;139.748;2023-11-21T09:16:18;102009.40;;;17.59;39.47
64115;BME280;62188;35.640;139.748;2023-11-21T09:18:44;102004.68;;;17.63;39.41
64115;BME280;62188;35.640;139.748;2023-11-21T09:21:09;102005.09;;;17.44;39.06
64115;BME280;62188;35.640;139.748;2023-11-21T09:23:34;102007.99;;;17.73;39.02
64115;BME280;62188;35.640;139.748;2023-11-21T09:26:00;102012.21;;;17.54;38.89
64115;BME280;62188;35.640;139.748;2023-11-21T09:28:25;102017.52;;;17.56;38.83
64115;BME280;62188;35.640;139.748;2023-11-21T09:30:50;102020.98;;;17.37;38.80
64115;BME280;62188;35.640;139.748;2023-11-21T09:33:15;102022.49;;;17.63;38.74
64115;BME280;62188;35.640;139.748;2023-11-21T09:35:40;102024.59;;;17.86;39.15
64115;BME280;62188;35.640;139.748;2023-11-21T09:38:06;102023.35;;;17.59;39.16
64115;BME280;62188;35.640;139.748;2023-11-21T09:40:32;102020.25;;;17.84;38.69
64115;BME280;62188;35.640;139.748;2023-11-21T09:42:58;102014.88;;;17.31;39.03
64115;BME280;62188;35.640;139.748;2023-11-21T09:45:27;102018.80;;;17.24;38.96
64115;BME280;62188;35.640;139.748;2023-11-21T09:47:48;102020.42;;;17.25;39.00
64115;BME280;62188;35.640;139.748;2023-11-21T09:50:17;102022.98;;;17.73;38.88
64115;BME280;62188;35.640;139.748;2023-11-21T09:52:47;102020.58;;;17.48;39.05
64115;BME280;62188;35.640;139.748;2023-11-21T09:55:05;102020.08;;;17.66;39.06
64115;BME280;62188;35.640;139.748;2023-11-21T09:57:31;102019.19;;;17.41;39.12
64115;BME280;62188;35.640;139.748;2023-11-21T09:59:56;102020.82;;;17.61;39.27
64115;BME280;62188;35.640;139.748;2023-11-21T10:02:22;102023.34;;;17.61;39.25
64115;BME280;62188;35.640;139.748;2023-11-21T10:04:47;102026.05;;;17.09;39.57
64115;BME280;62188;35.640;139.748;2023-11-21T10:07:12;102025.57;;;17.55;39.52
64115;BME280;62188;35.640;139.748;2023-11-21T10:09:38;102025.54;;;17.07;39.44
64115;BME280;62188;35.640;139.748;2023-11-21T10:12:05;102027.01;;;17.04;39.67
64115;BME280;62188;35.640;139.748;2023-11-21T10:14:29;102030.21;;;17.53;39.57
64115;BME280;62188;35.640;139.748;2023-11-21T10:16:55;102030.43;;;17.56;39.46
64115;BME280;62188;35.640;139.748;2023-11-21T10:19:20;102028.83;;;17.57;39.62
64115;BME280;62188;35.640;139.748;2023-11-21T10:21:45;102030.72;;;17.55;39.77
64115;BME280;62188;35.640;139.748;2023-11-21T10:24:11;102028.14;;;17.56;39.71
64115;BME280;62188;35.640;139.748;2023-11-21T10:26:36;102028.47;;;17.35;39.51
64115;BME280;62188;35.640;139.748;2023-11-21T10:29:03;102028.67;;;17.39;39.62
64115;BME280;62188;35.640;139.748;2023-11-21T10:31:29;102026.80;;;17.61;39.92
64115;BME280;62188;35.640;139.748;2023-11-21T10:33:53;102024.26;;;17.40;39.38
64115;BME280;62188;35.640;139.748;2023-11-21T10:36:26;102025.15;;;17.41;39.93
64115;BME280;62188;35.640;139.748;2023-11-21T10:38:44;102029.53;;;17.64;39.98
64115;BME280;62188;35.640;139.748;2023-11-21T10:41:12;102032.02;;;17.12;40.05
64115;BME280;62188;35.640;139.748;2023-11-21T10:43:34;102032.13;;;17.12;39.94
64115;BME280;62188;35.640;139.748;2023-11-21T10:46:00;102033.17;;;17.09;39.77
64115;BME280;62188;35.640;139.748;2023-11-21T10:48:26;102034.89;;;17.53;39.98
64115;BME280;62188;35.640;139.748;2023-11-21T10:50:51;102030.42;;;17.54;39.84
64115;BME280;62188;35.640;139.748;2023-11-21T10:53:16;102025.18;;;16.90;39.84
64115;BME280;62188;35.640;139.748;2023-11-21T10:55:42;102022.87;;;16.67;39.66
64115;BME280;62188;35.640;139.748;2023-11-21T10:58:07;102026.13;;;16.96;39.43
64115;BME280;62188;35.640;139.748;2023-11-21T11:00:34;102028.87;;;16.92;39.31
64115;BME280;62188;35.640;139.748;2023-11-21T11:02:59;102030.81;;;16.78;39.10
64115;BME280;62188;35.640;139.748;2023-11-21T11:05:26;102034.07;;;16.77;40.02
64115;BME280;62188;35.640;139.748;2023-11-21T11:07:55;102034.93;;;16.75;41.33
64115;BME280;62188;35.640;139.748;2023-11-21T11:10:16;102034.26;;;16.92;42.40
64115;BME280;62188;35.640;139.748;2023-11-21T11:12:42;102035.56;;;17.09;40.24
64115;BME280;62188;35.640;139.748;2023-11-21T11:15:08;102034.30;;;17.15;40.43
64115;BME280;62188;35.640;139.748;2023-11-21T11:17:33;102029.25;;;17.14;38.65
64115;BME280;62188;35.640;139.748;2023-11-21T11:19:58;102032.10;;;17.31;39.11
64115;BME280;62188;35.640;139.748;2023-11-21T11:22:34;102033.23;;;17.33;38.57
64115;BME280;62188;35.640;139.748;2023-11-21T11:25:10;102035.30;;;17.17;38.54
64115;BME280;62188;35.640;139.748;2023-11-21T11:27:21;102034.74;;;16.75;38.66
64115;BME280;62188;35.640;139.748;2023-11-21T11:29:46;102037.20;;;16.51;39.73
64115;BME280;62188;35.640;139.748;2023-11-21T11:32:12;102034.97;;;16.53;37.31
64115;BME280;62188;35.640;139.748;2023-11-21T11:34:32;102029.87;;;16.84;36.75
64115;BME280;62188;35.640;139.748;2023-11-21T11:37:02;102030.35;;;16.85;36.14
64115;BME280;62188;35.640;139.748;2023-11-21T11:39:32;102030.95;;;16.81;36.62
64115;BME280;62188;35.640;139.748;2023-11-21T11:41:48;102033.55;;;16.64;36.30
64115;BME280;62188;35.640;139.748;2023-11-21T11:46:44;102036.95;;;16.83;35.73
64115;BME280;62188;35.640;139.748;2023-11-21T11:49:04;102032.50;;;16.95;35.63
64115;BME280;62188;35.640;139.748;2023-11-21T11:51:30;102036.28;;;17.05;35.83
64115;BME280;62188;35.640;139.748;2023-11-21T11:53:56;102035.10;;;17.07;34.72
64115;BME280;62188;35.640;139.748;2023-11-21T11:56:26;102034.47;;;16.75;34.90
64115;BME280;62188;35.640;139.748;2023-11-21T11:58:47;102031.58;;;16.71;33.80
64115;BME280;62188;35.640;139.748;2023-11-21T12:01:13;102034.44;;;16.70;33.94
64115;BME280;62188;35.640;139.748;2023-11-21T12:03:37;102035.57;;;16.72;33.70
64115;BME280;62188;35.640;139.748;2023-11-21T12:06:03;102034.07;;;16.71;33.72
64115;BME280;62188;35.640;139.748;2023-11-21T12:08:30;102030.21;;;16.72;33.56
64115;BME280;62188;35.640;139.748;2023-11-21T12:10:54;102027.17;;;16.47;33.13
64115;BME280;62188;35.640;139.748;2023-11-21T12:13:20;102024.98;;;16.50;33.10
64115;BME280;62188;35.640;139.748;2023-11-21T12:15:46;102024.74;;;16.73;32.82
64115;BME280;62188;35.640;139.748;2023-11-21T12:18:11;102021.98;;;16.73;32.69
64115;BME280;62188;35.640;139.748;2023-11-21T12:20:37;102020.76;;;16.74;32.88
64115;BME280;62188;35.640;139.748;2023-11-21T12:23:02;102022.97;;;16.55;32.48